Time;durP1;ratioP1;P1;durP2;ratioP2;P2;SDS_P1;SDS_P2;PMS_P1;PMS_P2;Temp;Humidity;BMP_temperature;BMP_pressure;BME280_temperature;BME280_humidity;BME280_pressure;Samples;Min_cycle;Max_cycle;Signal;HPM_P1;HPM_P2
2022/06/29 00:00:07;;;;;;;9.23;7.80;;;17.50;99.90;;;;;;5050287;28;20452;-68
2022/06/29 00:02:36;;;;;;;8.00;7.20;;;17.50;99.90;;;;;;5050461;28;20502;-67
2022/06/29 00:05:04;;;;;;;8.27;7.57;;;17.60;99.90;;;;;;5050411;28;20452;-67
2022/06/29 00:07:31;;;;;;;9.53;8.60;;;17.60;99.90;;;;;;5050479;28;20455;-68
2022/06/29 00:09:58;;;;;;;9.40;8.50;;;17.60;99.90;;;;;;5050104;28;20451;-68
2022/06/29 00:12:25;;;;;;;8.03;7.23;;;17.50;99.90;;;;;;5050389;28;20463;-67
2022/06/29 00:14:52;;;;;;;8.23;7.40;;;17.50;99.90;;;;;;5050536;28;20448;-67
2022/06/29 00:17:19;;;;;;;7.87;7.17;;;17.40;99.90;;;;;;5049305;28;20446;-67
2022/06/29 00:19:47;;;;;;;10.23;9.23;;;17.40;99.90;;;;;;5050268;28;20447;-67
2022/06/29 00:22:14;;;;;;;7.80;7.10;;;17.40;99.90;;;;;;5050174;28;20448;-67
2022/06/29 00:24:40;;;;;;;8.93;7.97;;;17.30;99.90;;;;;;5050292;28;20444;-68
2022/06/29 00:27:08;;;;;;;8.43;7.73;;;17.20;99.90;;;;;;5050137;28;20451;-68
2022/06/29 00:29:35;;;;;;;8.40;7.60;;;17.20;99.90;;;;;;5050068;28;20440;-69
2022/06/29 00:32:01;;;;;;;8.40;7.70;;;17.20;99.90;;;;;;5049732;28;20451;-67
2022/06/29 00:34:28;;;;;;;8.10;7.40;;;17.20;99.90;;;;;;5050119;28;21179;-67
2022/06/29 00:36:58;;;;;;;8.83;8.03;;;17.20;99.90;;;;;;5050234;28;20479;-68
2022/06/29 00:39:25;;;;;;;9.50;8.70;;;17.20;99.90;;;;;;5050266;28;20849;-69
2022/06/29 00:41:52;;;;;;;9.03;8.07;;;17.20;99.90;;;;;;5049877;28;20462;-68
2022/06/29 00:44:20;;;;;;;10.70;9.77;;;17.10;99.90;;;;;;5050312;28;20571;-68
2022/06/29 00:46:48;;;;;;;8.53;7.80;;;17.10;99.90;;;;;;5050381;28;20471;-70
2022/06/29 00:49:16;;;;;;;9.70;8.40;;;17.10;99.90;;;;;;5050287;28;20547;-68
2022/06/29 00:51:46;;;;;;;9.70;8.80;;;17.10;99.90;;;;;;5050116;28;20767;-67
2022/06/29 00:54:18;;;;;;;10.13;9.17;;;17.00;99.90;;;;;;5049904;28;20549;-67
2022/06/29 00:56:45;;;;;;;9.13;8.33;;;16.90;99.90;;;;;;5049818;28;20480;-67
2022/06/29 00:59:14;;;;;;;9.70;8.80;;;16.90;99.90;;;;;;5049705;28;20554;-67
2022/06/29 01:01:42;;;;;;;10.03;9.23;;;16.90;99.90;;;;;;5049313;28;20471;-67
2022/06/29 01:04:09;;;;;;;10.83;9.63;;;17.00;99.90;;;;;;5049527;28;20594;-67
2022/06/29 01:06:36;;;;;;;10.73;9.80;;;16.90;99.90;;;;;;5049598;28;20478;-67
2022/06/29 01:09:04;;;;;;;11.40;10.17;;;16.80;99.90;;;;;;5049389;28;20459;-67
2022/06/29 01:11:33;;;;;;;9.33;8.37;;;16.80;99.90;;;;;;5049106;28;20938;-68
2022/06/29 01:14:01;;;;;;;10.40;9.50;;;16.80;99.90;;;;;;5049476;28;20479;-69
2022/06/29 01:16:29;;;;;;;11.97;10.77;;;16.90;99.90;;;;;;5049561;28;20484;-67
2022/06/29 01:18:56;;;;;;;10.70;9.70;;;16.90;99.90;;;;;;5049446;28;20498;-68
2022/06/29 01:21:23;;;;;;;11.00;9.80;;;16.80;99.90;;;;;;5049379;28;21213;-68
2022/06/29 01:23:52;;;;;;;10.43;9.33;;;16.90;99.90;;;;;;5049300;28;20471;-67
2022/06/29 01:26:18;;;;;;;10.10;9.10;;;16.90;99.90;;;;;;5049191;28;21001;-69
2022/06/29 01:28:46;;;;;;;9.63;8.67;;;16.90;99.90;;;;;;5050990;28;20519;-68
2022/06/29 01:31:17;;;;;;;11.20;10.20;;;17.00;99.90;;;;;;5053333;28;20443;-68
2022/06/29 01:33:44;;;;;;;9.63;8.70;;;16.90;99.90;;;;;;5053369;28;20474;-68
2022/06/29 01:36:11;;;;;;;9.57;8.63;;;16.80;99.90;;;;;;5053689;28;20479;-67
2022/06/29 01:38:39;;;;;;;11.27;9.97;;;16.80;99.90;;;;;;5053434;28;20462;-67
2022/06/29 01:41:10;;;;;;;10.50;9.60;;;16.80;99.90;;;;;;5053377;28;20443;-68
2022/06/29 01:43:37;;;;;;;10.43;9.40;;;16.80;99.90;;;;;;5053241;28;21071;-67
2022/06/29 01:46:04;;;;;;;10.10;9.20;;;16.80;99.90;;;;;;5053317;28;20451;-67
2022/06/29 01:48:31;;;;;;;10.70;9.70;;;16.80;99.90;;;;;;5053125;28;20452;-68
2022/06/29 01:50:58;;;;;;;8.97;8.17;;;16.80;99.90;;;;;;5052697;28;20908;-68
2022/06/29 01:53:25;;;;;;;9.67;8.87;;;16.80;99.90;;;;;;5052802;28;20494;-68
2022/06/29 01:55:52;;;;;;;9.53;8.63;;;16.80;99.90;;;;;;5053059;28;20472;-68
2022/06/29 01:58:20;;;;;;;10.20;9.20;;;16.60;99.90;;;;;;5053220;28;20708;-68
2022/06/29 02:00:47;;;;;;;11.37;9.47;;;16.60;99.90;;;;;;5052563;28;20448;-67
2022/06/29 02:03:14;;;;;;;9.57;8.63;;;16.60;99.90;;;;;;5052918;28;20478;-68
2022/06/29 02:05:41;;;;;;;10.37;9.40;;;16.60;99.90;;;;;;5052755;28;20459;-69
2022/06/29 02:08:08;;;;;;;11.47;10.23;;;16.60;99.90;;;;;;5052819;28;20475;-67
2022/06/29 02:10:35;;;;;;;10.30;9.30;;;16.60;99.90;;;;;;5052390;28;20443;-68
2022/06/29 02:13:02;;;;;;;10.27;9.30;;;16.50;99.90;;;;;;5052765;28;20470;-67
2022/06/29 02:15:30;;;;;;;10.07;9.17;;;16.50;99.90;;;;;;5052579;28;20439;-68
2022/06/29 02:17:57;;;;;;;12.60;10.10;;;16.50;99.90;;;;;;5052427;28;20443;-69
2022/06/29 02:20:24;;;;;;;10.17;9.37;;;16.50;99.90;;;;;;5052332;28;20903;-67
2022/06/29 02:22:51;;;;;;;11.10;10.00;;;16.50;99.90;;;;;;5052274;28;20989;-68
2022/06/29 02:25:18;;;;;;;10.07;9.13;;;16.50;99.90;;;;;;5052779;28;20538;-69
2022/06/29 02:27:46;;;;;;;10.27;9.30;;;16.40;99.90;;;;;;5052335;28;20934;-67
2022/06/29 02:30:14;;;;;;;10.50;9.33;;;16.50;99.90;;;;;;5052201;28;20451;-68
2022/06/29 02:35:28;;;;;;;10.47;9.50;;;16.40;99.90;;;;;;5052391;28;20603;-68
2022/06/29 02:37:55;;;;;;;10.63;9.60;;;16.30;99.90;;;;;;5052271;28;20490;-67
2022/06/29 02:40:22;;;;;;;11.50;10.27;;;16.20;99.90;;;;;;5051031;28;20487;-68
2022/06/29 02:42:49;;;;;;;10.83;9.73;;;16.30;99.90;;;;;;5051983;28;20850;-68
2022/06/29 02:45:16;;;;;;;11.90;10.80;;;16.30;99.90;;;;;;5051947;28;20448;-68
2022/06/29 02:47:44;;;;;;;10.97;9.97;;;16.30;99.90;;;;;;5051930;28;20444;-68
2022/06/29 02:50:11;;;;;;;9.73;8.83;;;16.30;99.90;;;;;;5051793;28;20444;-68
2022/06/29 02:52:37;;;;;;;12.23;10.27;;;16.30;99.90;;;;;;5051756;28;20468;-67
2022/06/29 02:55:05;;;;;;;9.60;8.80;;;16.30;99.90;;;;;;5051924;28;20858;-69
2022/06/29 02:57:32;;;;;;;10.90;9.80;;;16.30;99.90;;;;;;5051740;28;20901;-67
2022/06/29 02:59:58;;;;;;;10.47;9.57;;;16.30;99.90;;;;;;5051619;28;20448;-68
2022/06/29 03:02:25;;;;;;;10.93;9.83;;;16.30;99.90;;;;;;5051716;28;20468;-67
2022/06/29 03:04:53;;;;;;;10.23;9.27;;;16.30;99.90;;;;;;5051823;28;20452;-67
2022/06/29 03:07:20;;;;;;;10.00;9.10;;;16.20;99.90;;;;;;5051567;28;20549;-67
2022/06/29 03:09:47;;;;;;;10.13;9.23;;;16.30;99.90;;;;;;5051436;28;20452;-67
2022/06/29 03:12:14;;;;;;;10.73;9.63;;;16.30;99.90;;;;;;5051345;28;20452;-67
2022/06/29 03:14:40;;;;;;;9.90;9.07;;;16.20;99.90;;;;;;5051735;28;20536;-67
2022/06/29 03:17:07;;;;;;;11.07;9.97;;;16.20;99.90;;;;;;5051816;28;20475;-67
2022/06/29 03:19:34;;;;;;;11.90;10.70;;;16.20;99.90;;;;;;5051737;28;20908;-67
2022/06/29 03:22:02;;;;;;;12.00;10.90;;;16.30;99.90;;;;;;5051602;28;20462;-67
2022/06/29 03:24:29;;;;;;;12.67;11.03;;;16.30;99.90;;;;;;5051698;28;20824;-69
2022/06/29 03:26:56;;;;;;;12.23;10.33;;;16.30;99.90;;;;;;5051494;28;20447;-67
2022/06/29 03:29:23;;;;;;;11.40;10.30;;;16.20;99.90;;;;;;5051796;28;20452;-67
2022/06/29 03:31:49;;;;;;;11.07;10.17;;;16.20;99.90;;;;;;5051348;28;20447;-68
2022/06/29 03:34:16;;;;;;;14.40;12.13;;;16.20;99.90;;;;;;5051579;28;20533;-66
2022/06/29 03:36:43;;;;;;;11.03;9.90;;;16.20;99.90;;;;;;5051384;28;20582;-69
2022/06/29 03:39:11;;;;;;;10.57;9.67;;;16.20;99.90;;;;;;5051480;28;20443;-69
2022/06/29 03:41:38;;;;;;;11.73;10.63;;;16.30;99.90;;;;;;5050773;28;20455;-68
2022/06/29 03:44:05;;;;;;;12.23;11.23;;;16.30;99.90;;;;;;5051059;28;20474;-67
2022/06/29 03:46:32;;;;;;;13.40;12.07;;;16.20;99.90;;;;;;5051139;28;20436;-68
2022/06/29 03:48:59;;;;;;;13.87;12.67;;;16.20;99.90;;;;;;5051125;28;20460;-66
2022/06/29 03:51:25;;;;;;;14.80;13.23;;;16.10;99.90;;;;;;5050544;28;20448;-68
2022/06/29 03:53:52;;;;;;;15.20;13.80;;;16.10;99.90;;;;;;5050674;28;20468;-68
2022/06/29 03:56:20;;;;;;;13.23;11.30;;;16.20;99.90;;;;;;5050502;28;20533;-67
2022/06/29 03:58:47;;;;;;;12.20;10.90;;;16.20;99.90;;;;;;5050877;28;20825;-67
2022/06/29 04:01:14;;;;;;;12.30;11.00;;;16.20;99.90;;;;;;5050303;28;20451;-67
2022/06/29 04:03:41;;;;;;;12.17;10.90;;;16.20;99.90;;;;;;5050456;28;20468;-68
2022/06/29 04:06:10;;;;;;;13.47;12.10;;;16.20;99.90;;;;;;5050623;28;20448;-67
2022/06/29 04:08:37;;;;;;;13.47;11.90;;;16.30;99.90;;;;;;5050229;28;20452;-67
2022/06/29 04:11:48;;;;;;;13.90;12.60;;;16.30;99.90;;;;;;5050300;28;20460;-67
2022/06/29 04:13:52;;;;;;;12.97;11.87;;;16.40;99.90;;;;;;5049966;28;21013;-67
2022/06/29 04:16:19;;;;;;;14.57;13.03;;;16.30;99.90;;;;;;5050415;28;20803;-67
2022/06/29 04:18:46;;;;;;;14.20;13.00;;;16.40;99.90;;;;;;5050409;28;20799;-66
2022/06/29 04:21:13;;;;;;;15.63;14.20;;;16.40;99.90;;;;;;5050062;28;20965;-66
2022/06/29 04:23:40;;;;;;;13.77;12.57;;;16.30;99.90;;;;;;5050327;28;20472;-66
2022/06/29 04:26:07;;;;;;;14.43;12.77;;;16.40;99.90;;;;;;5049084;28;20442;-65
2022/06/29 04:28:33;;;;;;;12.10;11.00;;;16.40;99.90;;;;;;5045599;28;20547;-67
2022/06/29 04:31:02;;;;;;;14.20;12.70;;;16.50;99.90;;;;;;5041921;28;20441;-67
2022/06/29 04:33:29;;;;;;;13.33;11.87;;;16.50;99.90;;;;;;5050144;28;20904;-67
2022/06/29 04:35:56;;;;;;;13.93;12.63;;;16.70;99.90;;;;;;5050117;28;20451;-68
2022/06/29 04:38:23;;;;;;;14.00;12.60;;;16.70;99.90;;;;;;5050060;28;20486;-66
2022/06/29 04:40:49;;;;;;;12.93;11.83;;;16.80;99.90;;;;;;5049274;28;20451;-69
2022/06/29 04:43:16;;;;;;;12.60;11.50;;;16.90;99.90;;;;;;5050189;28;20555;-68
2022/06/29 04:48:29;;;;;;;12.13;10.97;;;16.90;99.90;;;;;;5043886;28;20431;-70
2022/06/29 04:50:56;;;;;;;12.90;11.10;;;17.10;99.90;;;;;;5046233;28;20480;-69
2022/06/29 04:53:22;;;;;;;12.13;10.97;;;17.10;99.90;;;;;;5049039;28;20464;-70
2022/06/29 04:55:49;;;;;;;12.37;11.10;;;17.20;99.90;;;;;;5046534;28;20444;-68
2022/06/29 04:58:16;;;;;;;13.27;11.97;;;17.20;99.90;;;;;;5047229;28;21019;-66
2022/06/29 05:00:43;;;;;;;13.83;11.57;;;17.30;99.90;;;;;;5048602;28;20539;-68
2022/06/29 05:03:10;;;;;;;12.73;11.63;;;17.30;99.90;;;;;;5043214;28;20475;-67
2022/06/29 05:05:38;;;;;;;12.60;11.40;;;17.40;99.90;;;;;;5043741;28;20448;-67
2022/06/29 05:08:05;;;;;;;16.77;12.83;;;17.40;99.90;;;;;;5048894;28;20440;-68
2022/06/29 05:10:32;;;;;;;12.40;11.30;;;17.40;99.90;;;;;;5049378;28;20471;-68
2022/06/29 05:12:59;;;;;;;12.87;11.57;;;17.40;99.90;;;;;;5048810;28;20533;-66
2022/06/29 05:15:26;;;;;;;12.77;11.50;;;17.40;99.90;;;;;;5048524;28;20452;-69
2022/06/29 05:17:53;;;;;;;13.23;12.00;;;17.50;99.90;;;;;;5048170;28;20495;-67
2022/06/29 05:20:21;;;;;;;18.30;13.37;;;17.50;99.90;;;;;;5048944;28;20455;-67
2022/06/29 05:22:49;;;;;;;12.40;10.67;;;17.50;99.90;;;;;;5048387;28;20480;-67
2022/06/29 05:25:16;;;;;;;13.23;11.80;;;17.60;99.90;;;;;;5048252;28;20471;-66
2022/06/29 05:27:43;;;;;;;13.17;12.00;;;17.60;99.90;;;;;;5049421;28;20459;-67
2022/06/29 05:30:10;;;;;;;13.93;12.70;;;17.60;99.90;;;;;;5048960;28;20475;-66
2022/06/29 05:32:37;;;;;;;13.33;12.03;;;17.60;99.90;;;;;;5049261;28;20463;-67
2022/06/29 05:35:05;;;;;;;13.30;12.10;;;17.60;99.90;;;;;;5049468;28;20459;-66
2022/06/29 05:37:32;;;;;;;13.50;12.10;;;17.60;99.90;;;;;;5045238;28;21139;-69
2022/06/29 05:40:01;;;;;;;12.00;11.00;;;17.50;99.90;;;;;;5045238;28;20875;-69
2022/06/29 05:42:27;;;;;;;13.10;11.90;;;17.60;99.90;;;;;;5047824;28;20462;-66
2022/06/29 05:44:54;;;;;;;12.67;11.50;;;17.70;99.90;;;;;;5048334;28;20530;-66
2022/06/29 05:47:21;;;;;;;12.83;11.67;;;17.70;99.90;;;;;;5048182;28;20823;-68
2022/06/29 05:49:48;;;;;;;13.00;11.80;;;17.70;99.90;;;;;;5048006;28;20479;-68
2022/06/29 05:52:15;;;;;;;13.40;12.10;;;17.70;99.90;;;;;;5048332;28;20452;-68
2022/06/29 05:54:42;;;;;;;12.00;10.90;;;17.70;99.90;;;;;;5048534;28;20458;-68
2022/06/29 05:57:10;;;;;;;12.90;11.60;;;17.70;99.90;;;;;;5048777;28;20479;-67
2022/06/29 05:59:37;;;;;;;12.07;10.90;;;17.80;99.90;;;;;;5049261;28;20518;-67
2022/06/29 06:02:04;;;;;;;12.77;11.47;;;17.80;99.90;;;;;;5049153;28;20960;-70
2022/06/29 06:04:31;;;;;;;13.47;11.93;;;17.90;99.90;;;;;;5049171;28;20495;-68
2022/06/29 06:06:58;;;;;;;15.90;12.03;;;18.00;99.90;;;;;;5049049;28;20844;-69
2022/06/29 06:09:27;;;;;;;12.53;11.40;;;18.00;99.90;;;;;;5049165;28;20542;-67
2022/06/29 06:11:54;;;;;;;13.80;12.53;;;18.10;99.90;;;;;;5049248;28;20460;-69
2022/06/29 06:14:23;;;;;;;12.97;11.83;;;18.10;99.90;;;;;;5049231;28;20471;-66
2022/06/29 06:16:50;;;;;;;13.10;11.80;;;18.20;99.90;;;;;;5052411;28;20448;-69
2022/06/29 06:19:17;;;;;;;14.23;10.47;;;18.30;99.90;;;;;;5052923;28;20474;-67
2022/06/29 06:21:44;;;;;;;15.13;11.83;;;18.30;99.90;;;;;;5052607;28;20456;-67
2022/06/29 06:24:11;;;;;;;13.53;12.17;;;18.40;99.90;;;;;;5052669;28;20494;-67
2022/06/29 06:26:38;;;;;;;11.10;10.10;;;18.50;99.90;;;;;;5051983;28;20454;-65
2022/06/29 06:29:05;;;;;;;11.97;10.97;;;18.50;99.90;;;;;;5052354;28;20457;-68
2022/06/29 06:31:34;;;;;;;12.97;11.70;;;18.50;99.90;;;;;;5048344;28;20460;-68
2022/06/29 06:34:01;;;;;;;12.40;11.40;;;18.60;99.90;;;;;;5052408;28;20966;-67
2022/06/29 06:36:28;;;;;;;11.53;10.60;;;18.70;99.90;;;;;;5048646;28;20444;-67
2022/06/29 06:38:55;;;;;;;10.93;10.03;;;18.90;99.90;;;;;;5046910;28;20493;-68
2022/06/29 06:41:25;;;;;;;11.47;10.43;;;19.00;99.90;;;;;;5046754;28;20586;-67
2022/06/29 06:43:53;;;;;;;11.63;10.63;;;19.10;99.90;;;;;;5052493;28;20464;-67
2022/06/29 06:46:21;;;;;;;10.63;9.63;;;19.20;99.90;;;;;;5036196;28;20471;-67
2022/06/29 06:48:50;;;;;;;12.20;11.00;;;19.40;99.90;;;;;;5052485;28;20440;-65
2022/06/29 06:51:17;;;;;;;12.70;11.60;;;19.40;99.90;;;;;;5051957;28;20450;-68
2022/06/29 06:53:44;;;;;;;12.23;11.20;;;19.30;99.90;;;;;;5055623;28;20467;-67
2022/06/29 06:56:11;;;;;;;12.83;11.50;;;19.30;99.90;;;;;;5051151;28;20452;-67
2022/06/29 06:58:38;;;;;;;12.30;11.27;;;19.20;99.90;;;;;;5046486;28;20480;-68
2022/06/29 07:01:05;;;;;;;13.00;11.70;;;19.30;99.90;;;;;;5051445;28;20450;-68
2022/06/29 07:03:32;;;;;;;12.83;11.63;;;19.40;99.90;;;;;;5051032;28;20521;-68
2022/06/29 07:06:04;;;;;;;11.00;10.00;;;19.50;99.90;;;;;;5045839;28;20440;-68
2022/06/29 07:08:31;;;;;;;11.47;10.47;;;19.70;99.90;;;;;;5049626;28;20581;-68
2022/06/29 07:10:58;;;;;;;9.90;9.10;;;19.90;99.90;;;;;;5044343;28;20455;-68
2022/06/29 07:13:25;;;;;;;10.53;9.53;;;20.10;99.90;;;;;;5040436;28;20819;-67
2022/06/29 07:15:52;;;;;;;11.47;10.53;;;20.20;99.90;;;;;;5050510;28;20436;-69
2022/06/29 07:18:19;;;;;;;10.40;9.57;;;20.40;99.90;;;;;;5047977;28;20567;-67
2022/06/29 07:20:45;;;;;;;10.23;9.40;;;20.50;99.90;;;;;;5047715;28;20894;-67
2022/06/29 07:23:26;;;;;;;9.87;9.07;;;20.60;99.90;;;;;;5048342;28;20463;-68
2022/06/29 07:25:54;;;;;;;10.40;9.60;;;20.80;99.90;;;;;;5051048;28;20459;-68
2022/06/29 07:28:20;;;;;;;9.70;8.80;;;20.90;99.90;;;;;;5050989;28;20440;-68
2022/06/29 07:30:47;;;;;;;8.50;7.90;;;21.00;99.90;;;;;;5050820;28;20491;-68
2022/06/29 07:33:14;;;;;;;10.53;9.63;;;21.20;99.90;;;;;;5051045;28;20857;-68
2022/06/29 07:35:41;;;;;;;10.60;9.60;;;21.40;99.90;;;;;;5044705;28;20480;-67
2022/06/29 07:38:11;;;;;;;9.87;8.87;;;21.50;99.90;;;;;;5031249;28;20484;-69
2022/06/29 07:40:39;;;;;;;9.03;8.30;;;21.60;99.90;;;;;;5030886;28;20445;-68
2022/06/29 07:43:07;;;;;;;9.93;9.10;;;21.80;99.90;;;;;;5031361;28;20465;-68
2022/06/29 07:45:35;;;;;;;11.17;9.93;;;21.90;99.90;;;;;;5031087;28;20463;-68
2022/06/29 07:48:01;;;;;;;10.83;9.57;;;22.10;99.90;;;;;;5030903;28;20448;-68
2022/06/29 07:50:28;;;;;;;9.73;8.93;;;22.20;99.90;;;;;;5030421;28;20966;-68
2022/06/29 07:52:55;;;;;;;10.30;8.97;;;22.30;99.90;;;;;;5030973;28;20461;-68
2022/06/29 07:55:22;;;;;;;10.50;9.50;;;22.30;99.90;;;;;;5030918;28;20453;-67
2022/06/29 07:57:50;;;;;;;10.70;9.70;;;22.50;99.90;;;;;;5044676;28;20495;-68
2022/06/29 08:00:17;;;;;;;8.80;8.10;;;22.60;99.90;;;;;;5050491;28;20544;-68
2022/06/29 08:02:44;;;;;;;11.63;10.73;;;22.80;99.90;;;;;;5050455;28;20472;-68
2022/06/29 08:05:11;;;;;;;10.27;9.37;;;22.70;99.90;;;;;;5050450;28;20992;-68
2022/06/29 08:07:38;;;;;;;10.40;9.00;;;22.80;99.90;;;;;;5047048;28;20575;-68
2022/06/29 08:10:07;;;;;;;9.20;8.40;;;22.90;99.90;;;;;;5050637;28;20818;-69
2022/06/29 08:12:35;;;;;;;8.30;7.30;;;23.00;99.90;;;;;;5039885;28;20503;-68
2022/06/29 08:15:04;;;;;;;8.93;8.07;;;23.20;99.90;;;;;;5050747;28;20930;-68
2022/06/29 08:17:31;;;;;;;8.87;7.60;;;23.30;99.90;;;;;;5050662;28;20460;-68
2022/06/29 08:19:58;;;;;;;8.57;7.87;;;23.30;99.90;;;;;;5050252;28;20455;-69
2022/06/29 08:22:25;;;;;;;9.47;8.57;;;23.50;99.90;;;;;;5050238;28;20517;-68
2022/06/29 08:24:52;;;;;;;7.70;7.10;;;23.50;99.90;;;;;;5050500;28;20459;-68
2022/06/29 08:27:22;;;;;;;8.60;7.50;;;23.60;99.90;;;;;;5050447;28;20447;-69
2022/06/29 08:29:49;;;;;;;7.50;6.80;;;23.60;99.90;;;;;;5049775;28;20475;-69
2022/06/29 08:32:17;;;;;;;7.90;7.30;;;23.80;99.90;;;;;;5050053;28;20451;-69
2022/06/29 08:34:44;;;;;;;8.00;7.37;;;24.00;99.90;;;;;;5049990;28;20968;-66
2022/06/29 08:37:11;;;;;;;7.03;6.43;;;24.20;99.90;;;;;;5049918;28;20486;-67
2022/06/29 08:39:38;;;;;;;8.23;6.87;;;24.20;99.90;;;;;;5047927;28;20480;-67
2022/06/29 08:42:06;;;;;;;7.53;6.90;;;24.40;99.90;;;;;;5047907;28;20455;-67
2022/06/29 08:44:33;;;;;;;7.07;6.47;;;24.50;99.90;;;;;;5045631;28;21131;-66
2022/06/29 08:47:02;;;;;;;7.63;6.73;;;24.70;99.90;;;;;;5050095;28;20831;-68
2022/06/29 08:49:31;;;;;;;9.87;7.20;;;24.70;99.90;;;;;;5049675;28;20480;-67
2022/06/29 08:51:58;;;;;;;8.40;7.60;;;24.70;99.90;;;;;;5046615;28;20456;-68
2022/06/29 08:54:26;;;;;;;7.37;6.77;;;24.60;99.90;;;;;;5042960;28;20891;-67
2022/06/29 08:56:53;;;;;;;7.80;7.10;;;24.70;99.90;;;;;;5045822;28;20444;-67
2022/06/29 08:59:22;;;;;;;8.30;7.53;;;25.00;99.90;;;;;;5049836;28;20490;-68
2022/06/29 09:01:50;;;;;;;7.30;6.70;;;25.10;99.90;;;;;;5049309;28;20506;-67
2022/06/29 09:04:17;;;;;;;8.13;7.17;;;25.10;99.90;;;;;;5043442;28;20468;-68
2022/06/29 09:06:46;;;;;;;7.43;6.70;;;25.00;99.90;;;;;;5049616;28;21001;-67
2022/06/29 09:09:13;;;;;;;7.43;6.73;;;24.90;99.90;;;;;;5047582;28;20464;-68
2022/06/29 09:11:43;;;;;;;7.57;6.40;;;24.90;99.90;;;;;;5047626;28;20450;-67
2022/06/29 09:14:15;;;;;;;7.30;6.60;;;25.10;99.90;;;;;;5044133;28;20467;-67
2022/06/29 09:16:56;;;;;;;7.23;6.63;;;25.40;99.90;;;;;;5032786;28;20451;-67
2022/06/29 09:19:26;;;;;;;7.20;6.50;;;25.60;99.90;;;;;;5045149;28;20480;-68
2022/06/29 09:21:56;;;;;;;7.63;6.00;;;25.70;99.90;;;;;;5045078;28;20444;-67
2022/06/29 09:24:25;;;;;;;6.73;6.13;;;25.90;99.90;;;;;;5043121;28;20464;-67
2022/06/29 09:26:53;;;;;;;6.47;5.87;;;25.90;99.90;;;;;;5036164;28;20452;-66
2022/06/29 09:29:22;;;;;;;6.53;5.77;;;25.90;99.90;;;;;;5046373;28;20549;-67
2022/06/29 09:32:16;;;;;;;8.43;7.27;;;25.80;99.90;;;;;;5046464;28;20957;-69
2022/06/29 09:34:45;;;;;;;6.40;5.70;;;25.80;99.90;;;;;;5042257;28;20448;-67
2022/06/29 09:37:15;;;;;;;6.83;6.13;;;26.00;99.90;;;;;;5042051;28;20961;-68
2022/06/29 09:39:45;;;;;;;7.10;6.40;;;26.10;99.90;;;;;;5050448;28;20506;-68
2022/06/29 09:42:14;;;;;;;6.60;6.00;;;26.20;99.90;;;;;;5045509;28;20942;-67
2022/06/29 09:44:42;;;;;;;7.70;5.80;;;26.40;99.90;;;;;;5049438;28;20814;-65
2022/06/29 09:47:12;;;;;;;6.23;5.03;;;27.10;99.90;;;;;;5043165;28;20447;-65
2022/06/29 09:49:39;;;;;;;6.50;5.90;;;27.90;99.90;;;;;;5056509;28;20443;-65
2022/06/29 09:52:07;;;;;;;6.23;5.63;;;27.90;99.90;;;;;;5055160;28;20443;-65
2022/06/29 09:54:40;;;;;;;9.63;6.10;;;27.70;99.90;;;;;;5052171;28;20448;-65
2022/06/29 09:57:08;;;;;;;5.23;4.73;;;27.50;99.90;;;;;;5050509;28;20458;-68
2022/06/29 10:02:35;;;;;;;7.07;5.10;;;27.80;99.90;;;;;;5053053;28;20431;-65
2022/06/29 10:05:05;;;;;;;5.53;5.00;;;27.90;99.90;;;;;;5053112;28;20782;-65
2022/06/29 10:07:34;;;;;;;5.37;4.87;;;27.50;99.90;;;;;;5051878;28;21217;-65
2022/06/29 10:10:04;;;;;;;4.77;4.30;;;28.00;99.90;;;;;;5052115;28;20443;-66
2022/06/29 10:16:02;;;;;;;5.77;5.20;;;29.60;99.90;;;;;;5052669;28;20450;-66
2022/06/29 10:18:51;;;;;;;5.90;4.30;;;31.10;99.50;;;;;;5053398;28;20523;-66
2022/06/29 10:21:20;;;;;;;6.50;5.30;;;32.30;98.40;;;;;;5050835;28;20444;-66
2022/06/29 10:23:48;;;;;;;4.53;4.13;;;32.70;96.00;;;;;;5046333;28;20467;-66
2022/06/29 10:26:39;;;;;;;5.10;4.67;;;33.60;93.70;;;;;;5045517;28;20458;-67
2022/06/29 10:29:32;;;;;;;4.90;4.00;;;33.70;90.60;;;;;;5045851;28;20455;-67
2022/06/29 10:32:18;;;;;;;4.47;3.90;;;34.10;91.60;;;;;;5044159;28;20455;-67
2022/06/29 10:37:31;;;;;;;4.10;3.60;;;34.10;90.10;;;;;;5047233;28;20439;-67
2022/06/29 10:40:04;;;;;;;3.83;3.43;;;34.50;90.50;;;;;;5038440;28;20542;-67
2022/06/29 10:45:44;;;;;;;3.80;3.47;;;35.40;87.30;;;;;;5003262;28;20498;-67
2022/06/29 10:48:21;;;;;;;3.97;3.20;;;36.10;80.90;;;;;;4993677;28;20490;-68
2022/06/29 10:50:48;;;;;;;3.70;3.40;;;36.00;82.50;;;;;;5015273;28;20456;-67
2022/06/29 10:53:17;;;;;;;4.90;4.50;;;35.50;83.90;;;;;;5041479;28;20997;-67
2022/06/29 10:55:46;;;;;;;6.43;5.13;;;34.10;85.10;;;;;;5044777;28;20440;-66
2022/06/29 10:58:15;;;;;;;4.90;4.40;;;32.30;89.90;;;;;;5048151;28;20444;-66
2022/06/29 11:00:44;;;;;;;5.93;5.33;;;31.00;92.20;;;;;;5039354;28;20539;-66
2022/06/29 11:03:13;;;;;;;6.43;5.07;;;29.80;93.60;;;;;;5041051;28;20556;-66
2022/06/29 11:12:01;;;;;;;8.43;6.03;;;28.90;95.90;;;;;;5041733;28;21155;-67
2022/06/29 11:14:02;;;;;;;7.43;5.13;;;28.80;97.90;;;;;;5041686;28;20510;-66
2022/06/29 11:16:35;;;;;;;6.60;5.80;;;28.80;97.10;;;;;;5041418;28;20453;-66
2022/06/29 11:19:02;;;;;;;7.03;6.13;;;28.60;97.00;;;;;;5043778;28;20567;-66
2022/06/29 11:21:32;;;;;;;5.93;5.20;;;28.20;97.00;;;;;;5043718;28;20821;-66
2022/06/29 11:24:05;;;;;;;6.50;5.17;;;27.90;97.80;;;;;;5048611;28;20551;-66
2022/06/29 11:26:35;;;;;;;7.33;6.63;;;27.90;98.00;;;;;;5051401;28;20451;-67
2022/06/29 11:29:04;;;;;;;5.67;5.17;;;28.40;97.60;;;;;;5051528;28;20793;-67
2022/06/29 11:31:31;;;;;;;5.70;5.07;;;29.20;96.90;;;;;;5050671;28;20549;-67
2022/06/29 11:33:58;;;;;;;5.53;4.93;;;30.00;96.20;;;;;;5051458;28;20464;-66
2022/06/29 11:36:28;;;;;;;6.50;5.90;;;30.10;95.90;;;;;;5050481;28;20926;-67
2022/06/29 11:38:57;;;;;;;5.53;5.00;;;30.10;94.60;;;;;;5044718;28;21096;-67
2022/06/29 11:41:26;;;;;;;6.27;5.67;;;30.40;95.40;;;;;;5047856;28;20935;-66
2022/06/29 11:44:00;;;;;;;6.80;5.40;;;30.30;93.70;;;;;;5050947;28;20472;-67
2022/06/29 11:46:28;;;;;;;6.33;5.50;;;29.80;94.40;;;;;;5050810;28;20447;-66
2022/06/29 11:51:53;;;;;;;6.23;5.63;;;29.20;96.60;;;;;;4988414;28;20997;-67
2022/06/29 11:54:36;;;;;;;5.47;5.03;;;28.90;95.80;;;;;;5035778;28;20997;-66
2022/06/29 11:57:06;;;;;;;7.73;5.73;;;29.00;96.90;;;;;;5046270;28;20447;-67
2022/06/29 11:59:33;;;;;;;7.17;5.10;;;29.30;96.40;;;;;;5058816;28;20497;-67
2022/06/29 12:02:01;;;;;;;7.80;6.03;;;29.50;96.10;;;;;;5070182;28;20451;-67
2022/06/29 12:04:30;;;;;;;6.00;5.30;;;29.90;95.90;;;;;;5070948;28;20463;-67
2022/06/29 12:07:08;;;;;;;4.80;4.40;;;30.40;95.70;;;;;;5071156;28;20455;-67
2022/06/29 12:09:37;;;;;;;5.13;4.63;;;30.70;95.00;;;;;;5070871;28;20446;-67
2022/06/29 12:12:05;;;;;;;6.17;4.60;;;31.40;94.20;;;;;;5070965;28;20898;-67
2022/06/29 12:14:32;;;;;;;5.80;5.20;;;31.80;93.10;;;;;;5070188;28;21022;-67
2022/06/29 12:17:01;;;;;;;5.83;4.30;;;31.60;91.90;;;;;;5070687;28;20457;-66
2022/06/29 12:19:28;;;;;;;12.27;5.37;;;31.70;91.90;;;;;;5070229;28;20483;-66
2022/06/29 12:21:57;;;;;;;7.43;5.30;;;32.00;92.20;;;;;;5058711;28;20536;-66
2022/06/29 12:24:24;;;;;;;10.37;5.10;;;31.50;92.00;;;;;;5043347;28;20562;-66
2022/06/29 12:26:51;;;;;;;5.53;5.00;;;32.10;94.50;;;;;;5047399;28;20444;-66
2022/06/29 12:29:18;;;;;;;5.00;4.00;;;32.90;91.70;;;;;;5049569;28;20968;-66
2022/06/29 12:31:46;;;;;;;5.97;4.77;;;33.70;91.30;;;;;;5049995;28;20443;-66
2022/06/29 12:34:15;;;;;;;4.97;4.20;;;34.20;88.00;;;;;;5049933;28;21000;-67
2022/06/29 12:36:43;;;;;;;27.73;11.63;;;34.30;90.00;;;;;;5050621;28;20440;-66
2022/06/29 12:39:10;;;;;;;9.27;5.77;;;34.00;87.50;;;;;;5061763;28;20482;-67
2022/06/29 12:41:37;;;;;;;6.37;4.67;;;33.80;87.10;;;;;;5061636;28;20484;-67
2022/06/29 12:44:04;;;;;;;5.13;4.63;;;33.60;91.30;;;;;;5049122;28;20468;-68
2022/06/29 12:46:32;;;;;;;5.53;4.27;;;34.20;90.20;;;;;;5047220;28;20456;-69
2022/06/29 12:49:00;;;;;;;4.83;4.43;;;34.70;86.60;;;;;;5039788;28;20452;-68
2022/06/29 12:51:29;;;;;;;5.77;4.70;;;34.20;88.00;;;;;;5038629;28;20441;-68
2022/06/29 12:53:56;;;;;;;5.90;4.30;;;34.10;88.20;;;;;;5044684;28;20555;-68
2022/06/29 12:56:23;;;;;;;7.90;4.80;;;33.80;88.10;;;;;;5049687;28;20946;-68
2022/06/29 12:58:49;;;;;;;6.60;4.20;;;33.30;87.50;;;;;;5049389;28;20451;-68
2022/06/29 13:01:16;;;;;;;6.80;4.80;;;33.30;90.90;;;;;;5048882;28;20837;-67
2022/06/29 13:03:45;;;;;;;7.87;4.60;;;33.20;90.60;;;;;;5050428;28;20541;-67
2022/06/29 13:06:12;;;;;;;5.93;4.40;;;32.80;88.50;;;;;;5050667;28;20455;-70
2022/06/29 13:08:40;;;;;;;5.60;4.47;;;32.70;85.80;;;;;;5050612;28;20546;-68